sensor_id;sensor_type;location;lat;lon;timestamp;pressure;altitude;pressure_sealevel;temperature;humidity
28167;BME280;15455;53.376;-6.262;2022-12-24T00:01:44;99907.81;;;5.06;100.00
28167;BME280;15455;53.376;-6.262;2022-12-24T00:04:29;99910.44;;;5.15;100.00
28167;BME280;15455;53.376;-6.262;2022-12-24T00:07:14;99914.81;;;5.30;100.00
28167;BME280;15455;53.376;-6.262;2022-12-24T00:10:00;99907.13;;;5.37;100.00
28167;BME280;15455;53.376;-6.262;2022-12-24T00:12:45;99901.06;;;5.38;100.00
28167;BME280;15455;53.376;-6.262;2022-12-24T00:15:31;99899.34;;;5.39;100.00
28167;BME280;15455;53.376;-6.262;2022-12-24T00:18:16;99902.81;;;5.43;100.00
28167;BME280;15455;53.376;-6.262;2022-12-24T00:21:02;99914.91;;;5.45;100.00
28167;BME280;15455;53.376;-6.262;2022-12-24T00:23:48;99913.19;;;5.47;100.00
28167;BME280;15455;53.376;-6.262;2022-12-24T00:26:34;99916.59;;;5.42;100.00
28167;BME280;15455;53.376;-6.262;2022-12-24T00:29:20;99920.06;;;5.39;100.00
28167;BME280;15455;53.376;-6.262;2022-12-24T00:32:05;99910.56;;;5.39;100.00
28167;BME280;15455;53.376;-6.262;2022-12-24T00:34:54;99910.56;;;5.44;100.00
28167;BME280;15455;53.376;-6.262;2022-12-24T00:37:39;99897.66;;;5.47;100.00
28167;BME280;15455;53.376;-6.262;2022-12-24T00:40:24;99903.72;;;5.55;100.00
28167;BME280;15455;53.376;-6.262;2022-12-24T00:43:10;99905.47;;;5.55;100.00
28167;BME280;15455;53.376;-6.262;2022-12-24T00:45:56;99908.91;;;5.55;100.00
28167;BME280;15455;53.376;-6.262;2022-12-24T00:48:42;99908.06;;;5.60;100.00
28167;BME280;15455;53.376;-6.262;2022-12-24T00:51:28;99915.00;;;5.64;100.00
28167;BME280;15455;53.376;-6.262;2022-12-24T00:54:14;99912.41;;;5.61;100.00
28167;BME280;15455;53.376;-6.262;2022-12-24T00:56:59;99915.84;;;5.58;100.00
28167;BME280;15455;53.376;-6.262;2022-12-24T00:59:45;99916.66;;;5.52;100.00
28167;BME280;15455;53.376;-6.262;2022-12-24T01:02:30;99914.09;;;5.54;100.00
28167;BME280;15455;53.376;-6.262;2022-12-24T01:05:16;99921.00;;;5.52;100.00
28167;BME280;15455;53.376;-6.262;2022-12-24T01:08:04;99908.91;;;5.55;100.00
28167;BME280;15455;53.376;-6.262;2022-12-24T01:10:50;99915.81;;;5.55;100.00
28167;BME280;15455;53.376;-6.262;2022-12-24T01:13:35;99927.00;;;5.48;100.00
28167;BME280;15455;53.376;-6.262;2022-12-24T01:16:21;99911.50;;;5.51;100.00
28167;BME280;15455;53.376;-6.262;2022-12-24T01:19:07;99923.56;;;5.52;100.00
28167;BME280;15455;53.376;-6.262;2022-12-24T01:21:53;99914.91;;;5.48;100.00
28167;BME280;15455;53.376;-6.262;2022-12-24T01:24:39;99920.94;;;5.46;100.00
28167;BME280;15455;53.376;-6.262;2022-12-24T01:27:25;99915.75;;;5.46;100.00
28167;BME280;15455;53.376;-6.262;2022-12-24T01:30:12;99922.66;;;5.42;100.00
28167;BME280;15455;53.376;-6.262;2022-12-24T01:32:58;99932.16;;;5.43;100.00
28167;BME280;15455;53.376;-6.262;2022-12-24T01:35:44;99930.44;;;5.44;100.00
28167;BME280;15455;53.376;-6.262;2022-12-24T01:38:30;99920.09;;;5.45;100.00
28167;BME280;15455;53.376;-6.262;2022-12-24T01:41:17;99917.47;;;5.42;100.00
28167;BME280;15455;53.376;-6.262;2022-12-24T01:44:24;99923.47;;;5.35;100.00
28167;BME280;15455;53.376;-6.262;2022-12-24T01:47:23;99920.88;;;5.32;100.00
28167;BME280;15455;53.376;-6.262;2022-12-24T01:50:15;99937.25;;;5.29;100.00
28167;BME280;15455;53.376;-6.262;2022-12-24T01:53:03;99939.81;;;5.28;100.00
28167;BME280;15455;53.376;-6.262;2022-12-24T01:55:50;99940.69;;;5.30;100.00
28167;BME280;15455;53.376;-6.262;2022-12-24T01:58:39;99941.56;;;5.29;100.00
28167;BME280;15455;53.376;-6.262;2022-12-24T02:01:27;99945.88;;;5.30;100.00
28167;BME280;15455;53.376;-6.262;2022-12-24T02:04:35;99949.25;;;5.19;100.00
28167;BME280;15455;53.376;-6.262;2022-12-24T02:07:22;99954.41;;;5.16;100.00
28167;BME280;15455;53.376;-6.262;2022-12-24T02:10:11;99960.41;;;5.12;100.00
28167;BME280;15455;53.376;-6.262;2022-12-24T02:12:58;99965.59;;;5.12;100.00
28167;BME280;15455;53.376;-6.262;2022-12-24T02:21:47;99969.88;;;5.09;100.00
28167;BME280;15455;53.376;-6.262;2022-12-24T02:31:14;99970.69;;;5.01;100.00
28167;BME280;15455;53.376;-6.262;2022-12-24T02:34:27;99969.78;;;4.98;100.00
28167;BME280;15455;53.376;-6.262;2022-12-24T02:37:21;99962.84;;;4.92;100.00
28167;BME280;15455;53.376;-6.262;2022-12-24T02:40:27;99965.38;;;4.84;100.00
28167;BME280;15455;53.376;-6.262;2022-12-24T02:43:18;99967.94;;;4.78;100.00
28167;BME280;15455;53.376;-6.262;2022-12-24T02:46:21;99981.69;;;4.77;100.00
28167;BME280;15455;53.376;-6.262;2022-12-24T02:49:10;99976.41;;;4.65;100.00
28167;BME280;15455;53.376;-6.262;2022-12-24T02:51:55;99988.50;;;4.67;100.00
28167;BME280;15455;53.376;-6.262;2022-12-24T02:54:41;99979.94;;;4.73;100.00
28167;BME280;15455;53.376;-6.262;2022-12-24T03:00:22;99972.31;;;4.89;100.00
28167;BME280;15455;53.376;-6.262;2022-12-24T03:06:12;99965.47;;;4.97;100.00
28167;BME280;15455;53.376;-6.262;2022-12-24T03:09:12;99964.59;;;4.95;100.00
28167;BME280;15455;53.376;-6.262;2022-12-24T03:12:11;99958.56;;;4.94;100.00
28167;BME280;15455;53.376;-6.262;2022-12-24T03:14:58;99966.25;;;4.86;100.00
28167;BME280;15455;53.376;-6.262;2022-12-24T03:17:47;99961.06;;;4.86;100.00
28167;BME280;15455;53.376;-6.262;2022-12-24T03:20:42;99961.88;;;4.81;100.00
28167;BME280;15455;53.376;-6.262;2022-12-24T03:23:28;99962.81;;;4.87;100.00
28167;BME280;15455;53.376;-6.262;2022-12-24T03:26:16;99973.16;;;4.87;100.00
28167;BME280;15455;53.376;-6.262;2022-12-24T03:29:06;99967.97;;;4.83;100.00
28167;BME280;15455;53.376;-6.262;2022-12-24T03:31:59;99968.75;;;4.76;100.00
28167;BME280;15455;53.376;-6.262;2022-12-24T03:34:45;99973.94;;;4.76;100.00
28167;BME280;15455;53.376;-6.262;2022-12-24T03:37:30;99970.53;;;4.83;100.00
28167;BME280;15455;53.376;-6.262;2022-12-24T03:40:16;99974.00;;;4.88;100.00
28167;BME280;15455;53.376;-6.262;2022-12-24T03:43:02;99989.59;;;4.91;100.00
28167;BME280;15455;53.376;-6.262;2022-12-24T03:45:47;99981.03;;;5.03;100.00
28167;BME280;15455;53.376;-6.262;2022-12-24T03:48:34;99978.44;;;5.00;100.00
28167;BME280;15455;53.376;-6.262;2022-12-24T03:51:21;99973.19;;;4.94;100.00
28167;BME280;15455;53.376;-6.262;2022-12-24T03:54:07;99974.91;;;4.92;100.00
28167;BME280;15455;53.376;-6.262;2022-12-24T03:56:53;99964.56;;;4.90;100.00
28167;BME280;15455;53.376;-6.262;2022-12-24T03:59:38;99970.69;;;5.00;100.00
28167;BME280;15455;53.376;-6.262;2022-12-24T04:02:24;99968.13;;;5.06;100.00
28167;BME280;15455;53.376;-6.262;2022-12-24T04:05:16;99974.25;;;5.16;100.00
28167;BME280;15455;53.376;-6.262;2022-12-24T04:08:02;99964.78;;;5.22;100.00
28167;BME280;15455;53.376;-6.262;2022-12-24T04:10:47;99973.44;;;5.26;100.00
28167;BME280;15455;53.376;-6.262;2022-12-24T04:13:33;99970.03;;;5.30;100.00
28167;BME280;15455;53.376;-6.262;2022-12-24T04:16:19;99984.66;;;5.30;100.00
28167;BME280;15455;53.376;-6.262;2022-12-24T04:19:04;99979.47;;;5.27;100.00
28167;BME280;15455;53.376;-6.262;2022-12-24T04:21:50;99973.47;;;5.31;100.00
28167;BME280;15455;53.376;-6.262;2022-12-24T04:24:35;99968.31;;;5.34;100.00
28167;BME280;15455;53.376;-6.262;2022-12-24T04:27:21;99973.50;;;5.35;100.00
28167;BME280;15455;53.376;-6.262;2022-12-24T04:30:14;99976.13;;;5.42;100.00
28167;BME280;15455;53.376;-6.262;2022-12-24T04:33:00;99974.38;;;5.37;100.00
28167;BME280;15455;53.376;-6.262;2022-12-24T04:35:45;99976.03;;;5.28;100.00
28167;BME280;15455;53.376;-6.262;2022-12-24T04:38:31;99983.00;;;5.35;100.00
28167;BME280;15455;53.376;-6.262;2022-12-24T04:41:20;99981.31;;;5.43;100.00
28167;BME280;15455;53.376;-6.262;2022-12-24T04:44:09;99977.94;;;5.52;100.00
28167;BME280;15455;53.376;-6.262;2022-12-24T04:46:54;99971.03;;;5.59;100.00
28167;BME280;15455;53.376;-6.262;2022-12-24T04:49:40;99976.22;;;5.59;100.00
28167;BME280;15455;53.376;-6.262;2022-12-24T04:52:25;99971.91;;;5.57;100.00
28167;BME280;15455;53.376;-6.262;2022-12-24T04:55:11;99970.16;;;5.50;100.00
28167;BME280;15455;53.376;-6.262;2022-12-24T04:57:56;99970.19;;;5.55;100.00
28167;BME280;15455;53.376;-6.262;2022-12-24T05:00:41;99965.03;;;5.61;100.00
28167;BME280;15455;53.376;-6.262;2022-12-24T05:03:27;99977.13;;;5.62;100.00
28167;BME280;15455;53.376;-6.262;2022-12-24T05:06:16;99973.59;;;5.49;100.00
28167;BME280;15455;53.376;-6.262;2022-12-24T05:09:03;99966.66;;;5.42;100.00
28167;BME280;15455;53.376;-6.262;2022-12-24T05:11:48;99975.22;;;5.35;100.00
28167;BME280;15455;53.376;-6.262;2022-12-24T05:14:34;99967.47;;;5.33;100.00
28167;BME280;15455;53.376;-6.262;2022-12-24T05:17:19;99979.59;;;5.41;100.00
28167;BME280;15455;53.376;-6.262;2022-12-24T05:20:05;99989.94;;;5.44;100.00
28167;BME280;15455;53.376;-6.262;2022-12-24T05:22:51;99990.78;;;5.41;100.00
28167;BME280;15455;53.376;-6.262;2022-12-24T05:25:55;100001.97;;;5.35;100.00
28167;BME280;15455;53.376;-6.262;2022-12-24T05:29:00;99994.19;;;5.31;100.00
28167;BME280;15455;53.376;-6.262;2022-12-24T05:31:46;99996.66;;;5.18;100.00
28167;BME280;15455;53.376;-6.262;2022-12-24T05:34:32;99989.69;;;5.08;100.00
28167;BME280;15455;53.376;-6.262;2022-12-24T05:37:17;100000.13;;;5.16;100.00
28167;BME280;15455;53.376;-6.262;2022-12-24T05:40:03;99988.91;;;5.18;100.00
28167;BME280;15455;53.376;-6.262;2022-12-24T05:42:49;99995.78;;;5.15;100.00
28167;BME280;15455;53.376;-6.262;2022-12-24T05:45:35;100000.91;;;5.06;100.00
28167;BME280;15455;53.376;-6.262;2022-12-24T05:48:20;100007.72;;;4.99;100.00
28167;BME280;15455;53.376;-6.262;2022-12-24T05:51:07;99995.69;;;5.04;100.00
28167;BME280;15455;53.376;-6.262;2022-12-24T05:53:53;100005.22;;;5.11;100.00
28167;BME280;15455;53.376;-6.262;2022-12-24T05:56:38;100008.63;;;5.04;100.00
28167;BME280;15455;53.376;-6.262;2022-12-24T05:59:24;100009.63;;;5.20;100.00
28167;BME280;15455;53.376;-6.262;2022-12-24T06:02:09;100027.78;;;5.26;100.00
28167;BME280;15455;53.376;-6.262;2022-12-24T06:04:54;100024.25;;;5.18;100.00
28167;BME280;15455;53.376;-6.262;2022-12-24T06:07:40;100038.84;;;5.08;100.00
28167;BME280;15455;53.376;-6.262;2022-12-24T06:10:25;100041.31;;;4.96;100.00
28167;BME280;15455;53.376;-6.262;2022-12-24T06:13:10;100042.94;;;4.84;100.00
28167;BME280;15455;53.376;-6.262;2022-12-24T06:15:58;100042.03;;;4.82;100.00
28167;BME280;15455;53.376;-6.262;2022-12-24T06:18:44;100049.78;;;4.81;100.00
28167;BME280;15455;53.376;-6.262;2022-12-24T06:21:29;100048.91;;;4.76;100.00
28167;BME280;15455;53.376;-6.262;2022-12-24T06:24:15;100037.63;;;4.72;100.00
28167;BME280;15455;53.376;-6.262;2022-12-24T06:27:00;100032.41;;;4.66;100.00
28167;BME280;15455;53.376;-6.262;2022-12-24T06:29:45;100033.19;;;4.56;100.00
28167;BME280;15455;53.376;-6.262;2022-12-24T06:32:31;100028.78;;;4.47;100.00
28167;BME280;15455;53.376;-6.262;2022-12-24T06:35:16;100033.78;;;4.33;100.00
28167;BME280;15455;53.376;-6.262;2022-12-24T06:38:01;100013.00;;;4.21;100.00
28167;BME280;15455;53.376;-6.262;2022-12-24T06:40:47;100012.84;;;4.10;100.00
28167;BME280;15455;53.376;-6.262;2022-12-24T06:43:33;100016.19;;;4.01;100.00
28167;BME280;15455;53.376;-6.262;2022-12-24T06:46:20;100012.56;;;3.87;100.00
28167;BME280;15455;53.376;-6.262;2022-12-24T06:49:06;100012.47;;;3.79;100.00
28167;BME280;15455;53.376;-6.262;2022-12-24T06:51:51;100021.00;;;3.73;100.00
28167;BME280;15455;53.376;-6.262;2022-12-24T06:54:37;100021.78;;;3.68;100.00
28167;BME280;15455;53.376;-6.262;2022-12-24T06:57:22;100021.00;;;3.72;100.00
28167;BME280;15455;53.376;-6.262;2022-12-24T07:00:08;100027.72;;;3.60;100.00
28167;BME280;15455;53.376;-6.262;2022-12-24T07:02:55;100020.72;;;3.53;100.00
28167;BME280;15455;53.376;-6.262;2022-12-24T07:05:40;100020.66;;;3.48;100.00
28167;BME280;15455;53.376;-6.262;2022-12-24T07:08:26;100015.34;;;3.39;100.00
28167;BME280;15455;53.376;-6.262;2022-12-24T07:11:12;100023.88;;;3.34;100.00
28167;BME280;15455;53.376;-6.262;2022-12-24T07:13:58;100025.63;;;3.35;100.00
28167;BME280;15455;53.376;-6.262;2022-12-24T07:16:43;100014.44;;;3.34;100.00
28167;BME280;15455;53.376;-6.262;2022-12-24T07:19:29;100013.78;;;3.49;100.00
28167;BME280;15455;53.376;-6.262;2022-12-24T07:22:14;100005.13;;;3.44;100.00
28167;BME280;15455;53.376;-6.262;2022-12-24T07:25:00;100007.63;;;3.41;100.00
28167;BME280;15455;53.376;-6.262;2022-12-24T07:27:45;99998.97;;;3.36;100.00
28167;BME280;15455;53.376;-6.262;2022-12-24T07:30:30;100003.19;;;3.30;100.00
28167;BME280;15455;53.376;-6.262;2022-12-24T07:33:16;100004.09;;;3.31;100.00
28167;BME280;15455;53.376;-6.262;2022-12-24T07:36:04;100000.56;;;3.26;100.00
28167;BME280;15455;53.376;-6.262;2022-12-24T07:38:49;99995.41;;;3.26;100.00
28167;BME280;15455;53.376;-6.262;2022-12-24T07:41:35;100006.44;;;3.17;100.00
28167;BME280;15455;53.376;-6.262;2022-12-24T07:44:26;100006.53;;;3.25;100.00
28167;BME280;15455;53.376;-6.262;2022-12-24T07:47:11;100006.66;;;3.31;100.00
28167;BME280;15455;53.376;-6.262;2022-12-24T07:49:57;100000.75;;;3.38;100.00
28167;BME280;15455;53.376;-6.262;2022-12-24T07:52:42;100001.72;;;3.48;100.00
28167;BME280;15455;53.376;-6.262;2022-12-24T07:55:27;100013.16;;;3.64;100.00
28167;BME280;15455;53.376;-6.262;2022-12-24T07:58:13;100031.41;;;3.79;100.00
28167;BME280;15455;53.376;-6.262;2022-12-24T08:00:58;100047.97;;;3.97;100.00
28167;BME280;15455;53.376;-6.262;2022-12-24T08:03:44;100045.53;;;4.05;100.00
28167;BME280;15455;53.376;-6.262;2022-12-24T08:06:30;100047.41;;;4.20;100.00
28167;BME280;15455;53.376;-6.262;2022-12-24T08:09:16;100047.66;;;4.41;100.00
28167;BME280;15455;53.376;-6.262;2022-12-24T08:12:02;100041.66;;;4.42;100.00
28167;BME280;15455;53.376;-6.262;2022-12-24T08:14:48;100037.47;;;4.54;100.00
28167;BME280;15455;53.376;-6.262;2022-12-24T08:17:34;100024.59;;;4.57;100.00
28167;BME280;15455;53.376;-6.262;2022-12-24T08:20:19;100027.16;;;4.54;100.00
28167;BME280;15455;53.376;-6.262;2022-12-24T08:23:05;100028.06;;;4.62;100.00
28167;BME280;15455;53.376;-6.262;2022-12-24T08:25:51;100031.63;;;4.72;100.00
28167;BME280;15455;53.376;-6.262;2022-12-24T08:28:37;100029.88;;;4.72;100.00
28167;BME280;15455;53.376;-6.262;2022-12-24T08:31:22;100036.84;;;4.78;100.00
28167;BME280;15455;53.376;-6.262;2022-12-24T08:34:09;100041.22;;;4.85;100.00
28167;BME280;15455;53.376;-6.262;2022-12-24T08:36:56;100045.53;;;4.86;100.00
28167;BME280;15455;53.376;-6.262;2022-12-24T08:39:42;100053.44;;;5.00;100.00
28167;BME280;15455;53.376;-6.262;2022-12-24T08:42:27;100050.00;;;5.02;100.00
28167;BME280;15455;53.376;-6.262;2022-12-24T08:45:13;100054.28;;;5.00;100.00
28167;BME280;15455;53.376;-6.262;2022-12-24T08:47:59;100056.84;;;4.94;100.00
28167;BME280;15455;53.376;-6.262;2022-12-24T08:50:45;100071.47;;;4.97;100.00
28167;BME280;15455;53.376;-6.262;2022-12-24T08:53:31;100061.22;;;5.01;100.00
28167;BME280;15455;53.376;-6.262;2022-12-24T08:56:16;100070.88;;;5.26;100.00
28167;BME280;15455;53.376;-6.262;2022-12-24T08:59:01;100058.91;;;5.38;100.00
28167;BME280;15455;53.376;-6.262;2022-12-24T09:01:47;100053.88;;;5.60;100.00
28167;BME280;15455;53.376;-6.262;2022-12-24T09:04:33;100055.72;;;5.78;100.00
28167;BME280;15455;53.376;-6.262;2022-12-24T09:07:18;100059.25;;;5.91;100.00
28167;BME280;15455;53.376;-6.262;2022-12-24T09:10:05;100045.47;;;5.95;100.00
28167;BME280;15455;53.376;-6.262;2022-12-24T09:12:51;100038.59;;;5.99;100.00
28167;BME280;15455;53.376;-6.262;2022-12-24T09:15:37;100023.88;;;5.95;100.00
28167;BME280;15455;53.376;-6.262;2022-12-24T09:18:23;100019.53;;;5.94;100.00
28167;BME280;15455;53.376;-6.262;2022-12-24T09:21:12;100019.53;;;5.90;100.00
28167;BME280;15455;53.376;-6.262;2022-12-24T09:24:03;100011.00;;;6.05;100.00
28167;BME280;15455;53.376;-6.262;2022-12-24T09:26:48;100008.44;;;6.16;100.00
28167;BME280;15455;53.376;-6.262;2022-12-24T09:29:41;100005.00;;;6.23;100.00
28167;BME280;15455;53.376;-6.262;2022-12-24T09:32:27;100007.63;;;6.28;100.00
28167;BME280;15455;53.376;-6.262;2022-12-24T09:35:12;100001.59;;;6.37;100.00
28167;BME280;15455;53.376;-6.262;2022-12-24T09:37:58;100000.78;;;6.49;100.00
28167;BME280;15455;53.376;-6.262;2022-12-24T09:40:50;99990.41;;;6.59;100.00
28167;BME280;15455;53.376;-6.262;2022-12-24T09:43:36;99985.25;;;6.70;100.00
28167;BME280;15455;53.376;-6.262;2022-12-24T09:46:31;99985.25;;;6.80;100.00
28167;BME280;15455;53.376;-6.262;2022-12-24T09:49:24;99971.41;;;6.90;100.00
28167;BME280;15455;53.376;-6.262;2022-12-24T09:52:14;99972.31;;;6.93;100.00
28167;BME280;15455;53.376;-6.262;2022-12-24T09:55:13;99969.69;;;6.97;100.00
28167;BME280;15455;53.376;-6.262;2022-12-24T09:58:05;99965.34;;;7.03;100.00
28167;BME280;15455;53.376;-6.262;2022-12-24T10:00:52;99961.91;;;7.09;100.00
28167;BME280;15455;53.376;-6.262;2022-12-24T10:03:39;99958.44;;;7.15;100.00
28167;BME280;15455;53.376;-6.262;2022-12-24T10:06:33;99963.63;;;7.25;100.00
28167;BME280;15455;53.376;-6.262;2022-12-24T10:15:59;99967.03;;;7.46;100.00
28167;BME280;15455;53.376;-6.262;2022-12-24T10:22:11;99970.47;;;7.48;100.00
28167;BME280;15455;53.376;-6.262;2022-12-24T10:25:17;99968.75;;;7.53;100.00
28167;BME280;15455;53.376;-6.262;2022-12-24T10:28:13;99961.81;;;7.60;100.00
28167;BME280;15455;53.376;-6.262;2022-12-24T10:31:02;99960.94;;;7.65;100.00
28167;BME280;15455;53.376;-6.262;2022-12-24T10:33:55;99960.91;;;7.73;100.00
28167;BME280;15455;53.376;-6.262;2022-12-24T10:36:42;99954.78;;;7.85;100.00
28167;BME280;15455;53.376;-6.262;2022-12-24T10:39:27;99949.53;;;7.99;100.00
28167;BME280;15455;53.376;-6.262;2022-12-24T10:42:14;99954.66;;;8.13;100.00
28167;BME280;15455;53.376;-6.262;2022-12-24T10:45:03;99960.63;;;8.27;100.00
28167;BME280;15455;53.376;-6.262;2022-12-24T10:47:56;99954.50;;;8.38;100.00
28167;BME280;15455;53.376;-6.262;2022-12-24T10:51:04;99959.66;;;8.51;100.00
28167;BME280;15455;53.376;-6.262;2022-12-24T10:54:00;99958.66;;;8.66;100.00
28167;BME280;15455;53.376;-6.262;2022-12-24T10:56:50;99959.41;;;8.85;100.00
28167;BME280;15455;53.376;-6.262;2022-12-24T10:59:49;99957.50;;;9.04;100.00
28167;BME280;15455;53.376;-6.262;2022-12-24T11:02:38;99948.66;;;9.21;100.00
28167;BME280;15455;53.376;-6.262;2022-12-24T11:05:32;99946.78;;;9.37;100.00
28167;BME280;15455;53.376;-6.262;2022-12-24T11:08:19;99929.22;;;9.53;100.00
28167;BME280;15455;53.376;-6.262;2022-12-24T11:11:10;99936.06;;;9.66;100.00
28167;BME280;15455;53.376;-6.262;2022-12-24T11:13:57;99935.84;;;9.82;100.00
28167;BME280;15455;53.376;-6.262;2022-12-24T11:16:54;99934.84;;;9.90;100.00
28167;BME280;15455;53.376;-6.262;2022-12-24T11:19:39;99926.09;;;9.96;100.00
28167;BME280;15455;53.376;-6.262;2022-12-24T11:22:27;99932.94;;;10.05;100.00
28167;BME280;15455;53.376;-6.262;2022-12-24T11:25:21;99914.63;;;10.08;100.00
28167;BME280;15455;53.376;-6.262;2022-12-24T11:28:19;99916.38;;;10.09;100.00
28167;BME280;15455;53.376;-6.262;2022-12-24T11:31:18;99910.34;;;10.05;100.00
28167;BME280;15455;53.376;-6.262;2022-12-24T11:40:00;99893.19;;;9.87;100.00
28167;BME280;15455;53.376;-6.262;2022-12-24T11:42:47;99896.72;;;9.83;100.00
28167;BME280;15455;53.376;-6.262;2022-12-24T11:45:37;99889.00;;;9.77;100.00
28167;BME280;15455;53.376;-6.262;2022-12-24T11:48:31;99894.31;;;9.71;100.00
28167;BME280;15455;53.376;-6.262;2022-12-24T11:51:23;99888.31;;;9.63;100.00
28167;BME280;15455;53.376;-6.262;2022-12-24T11:54:15;99895.31;;;9.57;100.00
28167;BME280;15455;53.376;-6.262;2022-12-24T11:57:02;99886.75;;;9.49;100.00
28167;BME280;15455;53.376;-6.262;2022-12-24T11:59:48;99882.50;;;9.42;100.00
28167;BME280;15455;53.376;-6.262;2022-12-24T12:02:37;99881.72;;;9.34;100.00
28167;BME280;15455;53.376;-6.262;2022-12-24T12:05:27;99887.00;;;9.26;100.00
28167;BME280;15455;53.376;-6.262;2022-12-24T12:08:18;99881.84;;;9.20;100.00
28167;BME280;15455;53.376;-6.262;2022-12-24T12:11:11;99887.13;;;9.14;100.00
28167;BME280;15455;53.376;-6.262;2022-12-24T12:13:59;99886.31;;;9.10;100.00
28167;BME280;15455;53.376;-6.262;2022-12-24T12:17:11;99871.63;;;9.03;100.00
28167;BME280;15455;53.376;-6.262;2022-12-24T12:23:24;99878.59;;;8.99;100.00
28167;BME280;15455;53.376;-6.262;2022-12-24T12:26:23;99879.47;;;9.00;100.00
28167;BME280;15455;53.376;-6.262;2022-12-24T12:32:05;99871.69;;;8.95;100.00
28167;BME280;15455;53.376;-6.262;2022-12-24T12:37:43;99863.09;;;8.89;100.00
28167;BME280;15455;53.376;-6.262;2022-12-24T12:49:41;99872.81;;;8.71;100.00
28167;BME280;15455;53.376;-6.262;2022-12-24T12:55:58;99871.16;;;8.64;100.00
28167;BME280;15455;53.376;-6.262;2022-12-24T12:59:09;99871.16;;;8.59;100.00
28167;BME280;15455;53.376;-6.262;2022-12-24T13:20:31;99923.81;;;7.28;100.00
28167;BME280;15455;53.376;-6.262;2022-12-24T13:23:23;99917.84;;;6.76;100.00
28167;BME280;15455;53.376;-6.262;2022-12-24T13:26:11;99908.31;;;6.55;100.00
28167;BME280;15455;53.376;-6.262;2022-12-24T13:44:26;99871.16;;;6.29;100.00
28167;BME280;15455;53.376;-6.262;2022-12-24T13:47:17;99866.84;;;6.28;100.00
28167;BME280;15455;53.376;-6.262;2022-12-24T13:50:29;99871.16;;;6.33;100.00
28167;BME280;15455;53.376;-6.262;2022-12-24T13:59:35;99850.44;;;6.47;100.00
28167;BME280;15455;53.376;-6.262;2022-12-24T14:02:23;99855.63;;;6.49;100.00
28167;BME280;15455;53.376;-6.262;2022-12-24T14:05:18;99865.09;;;6.48;100.00
28167;BME280;15455;53.376;-6.262;2022-12-24T14:08:10;99859.06;;;6.48;100.00
28167;BME280;15455;53.376;-6.262;2022-12-24T14:16:30;99851.28;;;6.46;100.00
28167;BME280;15455;53.376;-6.262;2022-12-24T14:19:40;99846.97;;;6.45;100.00
28167;BME280;15455;53.376;-6.262;2022-12-24T14:22:35;99838.34;;;6.46;100.00
28167;BME280;15455;53.376;-6.262;2022-12-24T14:25:22;99842.66;;;6.47;100.00
28167;BME280;15455;53.376;-6.262;2022-12-24T14:28:14;99837.47;;;6.47;100.00
28167;BME280;15455;53.376;-6.262;2022-12-24T14:31:04;99846.97;;;6.50;100.00
28167;BME280;15455;53.376;-6.262;2022-12-24T14:33:51;99847.84;;;6.50;100.00
28167;BME280;15455;53.376;-6.262;2022-12-24T14:36:38;99851.28;;;6.49;100.00
28167;BME280;15455;53.376;-6.262;2022-12-24T14:39:34;99849.56;;;6.47;100.00
28167;BME280;15455;53.376;-6.262;2022-12-24T14:46:03;99857.34;;;6.47;100.00
28167;BME280;15455;53.376;-6.262;2022-12-24T14:52:17;99840.94;;;6.48;100.00
28167;BME280;15455;53.376;-6.262;2022-12-24T14:55:34;99834.00;;;6.45;100.00
28167;BME280;15455;53.376;-6.262;2022-12-24T14:58:25;99825.38;;;6.43;100.00
28167;BME280;15455;53.376;-6.262;2022-12-24T15:06:55;99802.03;;;6.38;100.00
28167;BME280;15455;53.376;-6.262;2022-12-24T15:09:42;99796.84;;;6.38;100.00
28167;BME280;15455;53.376;-6.262;2022-12-24T15:12:28;99796.00;;;6.36;100.00
28167;BME280;15455;53.376;-6.262;2022-12-24T15:15:16;99790.81;;;6.38;100.00
28167;BME280;15455;53.376;-6.262;2022-12-24T15:18:03;99784.78;;;6.37;100.00
28167;BME280;15455;53.376;-6.262;2022-12-24T15:20:51;99770.09;;;6.35;100.00
28167;BME280;15455;53.376;-6.262;2022-12-24T15:23:50;99762.31;;;6.35;100.00
28167;BME280;15455;53.376;-6.262;2022-12-24T15:26:36;99773.53;;;6.35;100.00
28167;BME280;15455;53.376;-6.262;2022-12-24T15:29:24;99793.41;;;6.35;100.00
28167;BME280;15455;53.376;-6.262;2022-12-24T15:32:14;99790.81;;;6.33;100.00
28167;BME280;15455;53.376;-6.262;2022-12-24T15:35:01;99770.94;;;6.31;100.00
28167;BME280;15455;53.376;-6.262;2022-12-24T15:37:46;99749.38;;;6.27;100.00
28167;BME280;15455;53.376;-6.262;2022-12-24T15:40:31;99747.66;;;6.24;100.00
28167;BME280;15455;53.376;-6.262;2022-12-24T15:43:19;99748.50;;;6.23;100.00
28167;BME280;15455;53.376;-6.262;2022-12-24T15:46:05;99788.25;;;6.24;100.00
28167;BME280;15455;53.376;-6.262;2022-12-24T15:48:53;99832.28;;;6.22;100.00
28167;BME280;15455;53.376;-6.262;2022-12-24T15:51:39;99818.44;;;6.03;100.00
28167;BME280;15455;53.376;-6.262;2022-12-24T15:54:25;99798.56;;;5.90;100.00
28167;BME280;15455;53.376;-6.262;2022-12-24T15:57:13;99802.84;;;5.83;100.00
28167;BME280;15455;53.376;-6.262;2022-12-24T16:00:00;99822.72;;;5.80;100.00
28167;BME280;15455;53.376;-6.262;2022-12-24T16:02:48;99812.34;;;5.81;100.00
28167;BME280;15455;53.376;-6.262;2022-12-24T16:05:36;99768.34;;;5.81;100.00
28167;BME280;15455;53.376;-6.262;2022-12-24T16:08:23;99773.50;;;5.81;100.00
28167;BME280;15455;53.376;-6.262;2022-12-24T16:11:14;99732.94;;;5.80;100.00
28167;BME280;15455;53.376;-6.262;2022-12-24T16:14:09;99712.22;;;5.80;100.00
28167;BME280;15455;53.376;-6.262;2022-12-24T16:16:55;99710.50;;;5.76;100.00
28167;BME280;15455;53.376;-6.262;2022-12-24T16:19:46;99719.16;;;5.72;100.00
28167;BME280;15455;53.376;-6.262;2022-12-24T16:22:33;99722.59;;;5.72;100.00
28167;BME280;15455;53.376;-6.262;2022-12-24T16:25:26;99705.31;;;5.73;100.00
28167;BME280;15455;53.376;-6.262;2022-12-24T16:28:12;99719.16;;;5.75;100.00
28167;BME280;15455;53.376;-6.262;2022-12-24T16:31:06;99698.44;;;5.75;100.00
28167;BME280;15455;53.376;-6.262;2022-12-24T16:33:53;99695.84;;;5.73;100.00